createdAt,value
2024-05-09T00:00:22.140Z,3.40
2024-05-09T00:02:53.339Z,3.50
2024-05-09T00:05:20.277Z,4.25
2024-05-09T00:07:47.712Z,3.90
2024-05-09T00:10:22.622Z,3.70
2024-05-09T00:12:55.830Z,3.78
2024-05-09T00:15:22.535Z,3.90
2024-05-09T00:17:49.702Z,3.47
2024-05-09T00:20:23.926Z,3.67
2024-05-09T00:22:54.823Z,3.42
2024-05-09T00:25:21.611Z,3.50
2024-05-09T00:27:48.459Z,3.42
2024-05-09T00:30:24.138Z,3.72
2024-05-09T00:32:58.172Z,3.60
2024-05-09T00:35:25.064Z,3.65
2024-05-09T00:37:52.155Z,3.40
2024-05-09T00:40:27.225Z,3.25
2024-05-09T00:43:02.536Z,3.70
2024-05-09T00:45:29.204Z,3.35
2024-05-09T00:47:56.814Z,3.55
2024-05-09T00:50:29.958Z,3.55
2024-05-09T00:53:02.914Z,3.10
2024-05-09T00:55:30.039Z,3.17
2024-05-09T00:57:57.114Z,3.50
2024-05-09T01:00:31.545Z,3.55
2024-05-09T01:03:05.652Z,3.30
2024-05-09T01:05:34.487Z,2.85
2024-05-09T01:08:01.836Z,3.10
2024-05-09T01:10:34.296Z,3.10
2024-05-09T01:13:04.257Z,3.42
2024-05-09T01:15:31.518Z,3.13
2024-05-09T01:18:01.032Z,3.20
2024-05-09T01:20:37.465Z,3.22
2024-05-09T01:23:10.032Z,3.47
2024-05-09T01:25:37.307Z,3.35
2024-05-09T01:28:04.627Z,3.47
2024-05-09T01:30:35.164Z,3.45
2024-05-09T01:33:07.275Z,3.63
2024-05-09T01:38:02.907Z,3.30
2024-05-09T01:40:37.185Z,3.17
2024-05-09T01:43:07.278Z,3.40
2024-05-09T01:45:34.290Z,3.25
2024-05-09T01:48:01.987Z,3.20
2024-05-09T01:50:37.686Z,3.58
2024-05-09T01:53:11.843Z,3.38
2024-05-09T01:55:39.275Z,3.35
2024-05-09T01:58:06.263Z,3.80
2024-05-09T02:00:39.227Z,3.35
2024-05-09T02:03:11.781Z,3.03
2024-05-09T02:05:41.972Z,3.05
2024-05-09T02:08:13.865Z,3.15
2024-05-09T02:10:40.873Z,3.15
2024-05-09T02:13:10.519Z,3.20
2024-05-09T02:15:37.199Z,3.60
2024-05-09T02:18:04.619Z,3.40
2024-05-09T02:20:36.202Z,3.20
2024-05-09T02:23:06.175Z,3.55
2024-05-09T02:25:33.504Z,3.40
2024-05-09T02:28:00.234Z,3.80
2024-05-09T02:30:37.748Z,3.75
2024-05-09T02:33:08.994Z,3.35
2024-05-09T02:35:36.613Z,3.50
2024-05-09T02:38:04.391Z,3.80
2024-05-09T02:40:37.279Z,3.35
2024-05-09T02:43:06.915Z,3.53
2024-05-09T02:45:33.751Z,3.42
2024-05-09T02:48:01.276Z,3.85
2024-05-09T02:50:34.644Z,3.80
2024-05-09T02:53:06.040Z,3.40
2024-05-09T02:55:33.189Z,3.70
2024-05-09T02:58:00.024Z,3.88
2024-05-09T03:00:35.068Z,3.58
2024-05-09T03:03:11.838Z,3.40
2024-05-09T03:05:41.141Z,3.60
2024-05-09T03:08:08.134Z,3.72
2024-05-09T03:10:37.124Z,4.05
2024-05-09T03:13:14.906Z,3.70
2024-05-09T03:15:43.601Z,3.85
2024-05-09T03:18:11.659Z,3.60
2024-05-09T03:20:39.361Z,3.67
2024-05-09T03:23:09.135Z,4.13
2024-05-09T03:25:36.821Z,3.55
2024-05-09T03:28:03.732Z,3.92
2024-05-09T03:30:39.325Z,3.90
2024-05-09T03:33:15.357Z,3.85
2024-05-09T03:35:45.832Z,3.75
2024-05-09T03:38:12.633Z,3.72
2024-05-09T03:40:50.756Z,3.95
2024-05-09T03:43:18.496Z,4.03
2024-05-09T03:45:48.333Z,3.67
2024-05-09T03:48:18.729Z,3.63
2024-05-09T03:50:45.608Z,3.70
2024-05-09T03:53:14.168Z,3.72
2024-05-09T03:55:41.125Z,3.70
2024-05-09T03:58:08.412Z,3.95
2024-05-09T04:00:38.851Z,4.10
2024-05-09T04:03:09.902Z,3.40
2024-05-09T04:05:43.140Z,3.90
2024-05-09T04:10:38.003Z,3.95
2024-05-09T04:13:05.075Z,4.20
2024-05-09T04:15:32.256Z,3.95
2024-05-09T04:17:59.422Z,3.80
2024-05-09T04:22:56.112Z,4.03
2024-05-09T04:25:22.735Z,3.63
2024-05-09T04:27:49.348Z,3.70
2024-05-09T04:30:25.369Z,3.70
2024-05-09T04:32:57.786Z,4.10
2024-05-09T04:35:24.749Z,3.67
2024-05-09T04:37:51.572Z,3.70
2024-05-09T04:40:27.669Z,4.03
2024-05-09T04:42:58.223Z,3.85
2024-05-09T04:45:24.844Z,3.92
2024-05-09T04:47:51.879Z,3.55
2024-05-09T04:50:28.920Z,3.58
2024-05-09T04:53:00.761Z,3.92
2024-05-09T04:55:27.446Z,4.15
2024-05-09T04:57:54.033Z,3.75
2024-05-09T05:00:28.508Z,3.75
2024-05-09T05:03:05.597Z,3.90
2024-05-09T05:05:32.617Z,3.60
2024-05-09T05:07:59.290Z,3.75
2024-05-09T05:10:33.698Z,3.92
2024-05-09T05:13:22.633Z,4.20
2024-05-09T05:15:58.185Z,4.03
2024-05-09T05:18:27.206Z,4.15
2024-05-09T05:20:55.900Z,4.50
2024-05-09T05:23:23.737Z,3.85
2024-05-09T05:25:54.847Z,4.50
2024-05-09T05:28:22.361Z,4.13
2024-05-09T05:30:49.379Z,3.67
2024-05-09T05:33:18.992Z,4.25
2024-05-09T05:35:46.243Z,4.38
2024-05-09T05:38:13.074Z,4.53
2024-05-09T05:40:40.771Z,4.55
2024-05-09T05:43:09.924Z,4.22
2024-05-09T05:45:37.080Z,4.18
2024-05-09T05:48:06.100Z,4.53
2024-05-09T05:50:36.804Z,4.50
2024-05-09T05:53:10.016Z,5.10
2024-05-09T05:55:39.174Z,4.35
2024-05-09T05:58:09.557Z,4.88
2024-05-09T06:00:39.205Z,4.68
2024-05-09T06:03:08.608Z,4.77
2024-05-09T06:05:37.327Z,4.60
2024-05-09T06:08:04.734Z,4.75
2024-05-09T06:10:38.003Z,4.80
2024-05-09T06:13:08.074Z,4.85
2024-05-09T06:15:34.866Z,4.80
2024-05-09T06:18:01.993Z,4.97
2024-05-09T06:20:35.588Z,4.47
2024-05-09T06:23:08.443Z,4.82
2024-05-09T06:25:36.228Z,4.70
2024-05-09T06:28:03.430Z,5.22
2024-05-09T06:30:37.599Z,4.75
2024-05-09T06:33:09.383Z,4.85
2024-05-09T06:35:37.393Z,5.15
2024-05-09T06:38:04.602Z,5.90
2024-05-09T06:40:37.377Z,5.40
2024-05-09T06:43:17.119Z,5.30
2024-05-09T06:45:47.152Z,5.97
2024-05-09T06:48:14.620Z,4.97
2024-05-09T06:50:41.647Z,5.80
2024-05-09T06:53:09.240Z,4.97
2024-05-09T06:55:37.163Z,5.75
2024-05-09T06:58:06.535Z,5.85
2024-05-09T07:00:38.961Z,5.30
2024-05-09T07:03:13.303Z,5.25
2024-05-09T07:05:42.709Z,5.60
2024-05-09T07:08:09.814Z,5.63
2024-05-09T07:10:37.195Z,5.70
2024-05-09T07:13:15.073Z,5.72
2024-05-09T07:15:43.370Z,5.38
2024-05-09T07:18:18.065Z,5.97
2024-05-09T07:20:47.304Z,5.80
2024-05-09T07:23:15.253Z,6.30
2024-05-09T07:25:42.481Z,6.30
2024-05-09T07:28:16.025Z,5.97
2024-05-09T07:30:43.344Z,6.50
2024-05-09T07:33:15.551Z,5.90
2024-05-09T07:35:42.449Z,6.35
2024-05-09T07:38:09.361Z,5.95
2024-05-09T07:40:37.123Z,6.00
2024-05-09T07:43:07.919Z,5.68
2024-05-09T07:52:32.442Z,5.40
2024-05-09T07:53:39.655Z,5.53
2024-05-09T07:56:11.951Z,5.65
2024-05-09T07:58:39.555Z,5.10
2024-05-09T08:01:06.610Z,4.97
2024-05-09T08:03:33.637Z,4.80
2024-05-09T08:06:00.708Z,5.70
2024-05-09T08:08:27.436Z,4.72
2024-05-09T08:10:54.124Z,4.82
2024-05-09T08:13:21.075Z,4.88
2024-05-09T08:15:47.795Z,4.70
2024-05-09T08:18:14.745Z,4.38
2024-05-09T08:20:42.122Z,4.90
2024-05-09T08:23:08.826Z,4.20
2024-05-09T08:25:35.446Z,4.28
2024-05-09T08:28:04.440Z,4.43
2024-05-09T08:30:36.693Z,4.82
2024-05-09T08:33:06.921Z,4.43
2024-05-09T08:35:34.847Z,4.30
2024-05-09T08:38:07.028Z,4.65
2024-05-09T08:40:36.351Z,4.20
2024-05-09T08:43:10.275Z,4.75
2024-05-09T08:45:42.666Z,4.28
2024-05-09T08:48:12.400Z,4.75
2024-05-09T08:50:40.808Z,4.30
2024-05-09T08:53:08.850Z,4.20
2024-05-09T08:55:40.252Z,3.75
2024-05-09T08:58:12.681Z,3.75
2024-05-09T09:00:42.115Z,3.63
2024-05-09T09:03:11.427Z,3.80
2024-05-09T09:05:40.038Z,3.55
2024-05-09T09:08:08.503Z,3.30
2024-05-09T09:10:36.181Z,3.63
2024-05-09T09:13:09.542Z,4.22
2024-05-09T09:15:47.271Z,4.10
2024-05-09T09:18:15.134Z,3.65
2024-05-09T09:20:42.280Z,3.40
2024-05-09T09:23:09.057Z,3.60
2024-05-09T09:25:38.788Z,4.15
2024-05-09T09:28:07.157Z,2.92
2024-05-09T09:30:37.449Z,3.00
2024-05-09T09:33:14.138Z,3.27
2024-05-09T09:35:41.066Z,3.25
2024-05-09T09:38:10.092Z,2.75
2024-05-09T09:40:42.856Z,2.60
2024-05-09T09:43:22.024Z,3.40
2024-05-09T09:45:55.240Z,2.78
2024-05-09T09:48:23.236Z,2.70
2024-05-09T09:50:52.171Z,3.28
2024-05-09T09:53:19.646Z,3.05
2024-05-09T09:55:46.837Z,2.70
2024-05-09T09:58:15.863Z,2.40
2024-05-09T10:00:42.742Z,2.90
2024-05-09T10:03:09.845Z,2.88
2024-05-09T10:05:37.272Z,3.05
2024-05-09T10:08:09.927Z,3.47
2024-05-09T10:10:37.205Z,3.05
2024-05-09T10:13:07.676Z,3.05
2024-05-09T10:15:51.229Z,2.60
2024-05-09T10:18:26.095Z,3.22
2024-05-09T10:20:56.048Z,3.03
2024-05-09T10:23:33.364Z,3.33
2024-05-09T10:26:06.486Z,3.38
2024-05-09T10:28:37.894Z,3.47
2024-05-09T10:31:16.404Z,3.80
2024-05-09T10:33:48.938Z,3.90
2024-05-09T10:36:26.433Z,3.25
2024-05-09T10:38:54.675Z,3.03
2024-05-09T10:41:22.627Z,3.25
2024-05-09T10:43:50.300Z,3.40
2024-05-09T10:46:19.295Z,3.97
2024-05-09T10:48:47.366Z,4.35
2024-05-09T10:51:14.328Z,4.65
2024-05-09T10:53:42.319Z,5.03
2024-05-09T10:56:09.416Z,4.50
2024-05-09T10:58:36.019Z,4.30
2024-05-09T11:01:06.258Z,4.25
2024-05-09T11:03:34.366Z,4.13
2024-05-09T11:06:01.525Z,4.15
2024-05-09T11:08:28.794Z,4.35
2024-05-09T11:10:56.391Z,4.45
2024-05-09T11:13:30.386Z,4.35
2024-05-09T11:15:57.340Z,5.00
2024-05-09T11:18:27.142Z,4.00
2024-05-09T11:20:56.586Z,4.18
2024-05-09T11:23:27.294Z,4.53
2024-05-09T11:25:55.642Z,4.68
2024-05-09T11:28:23.128Z,4.22
2024-05-09T11:30:51.018Z,4.30
2024-05-09T11:33:19.524Z,4.10
2024-05-09T11:35:47.125Z,4.93
2024-05-09T11:38:14.008Z,4.80
2024-05-09T11:40:40.912Z,4.70
2024-05-09T11:43:07.670Z,4.90
2024-05-09T11:45:34.443Z,4.60
2024-05-09T11:48:01.506Z,4.85
2024-05-09T11:50:33.041Z,4.60
2024-05-09T11:53:02.386Z,4.00
2024-05-09T11:55:29.263Z,4.00
2024-05-09T11:57:57.022Z,4.32
2024-05-09T12:00:33.007Z,4.40
2024-05-09T12:03:05.393Z,4.60
2024-05-09T12:05:34.000Z,4.25
2024-05-09T12:08:01.711Z,4.63
2024-05-09T12:12:58.517Z,4.63
2024-05-09T12:15:25.212Z,4.82
2024-05-09T12:17:52.016Z,4.88
2024-05-09T12:20:28.262Z,4.60
2024-05-09T12:23:01.487Z,4.32
2024-05-09T12:25:28.166Z,4.47
2024-05-09T12:27:55.032Z,4.85
2024-05-09T12:30:32.507Z,4.20
2024-05-09T12:33:04.424Z,4.93
2024-05-09T12:35:31.302Z,4.38
2024-05-09T12:37:57.916Z,4.30
2024-05-09T12:40:34.184Z,3.80
2024-05-09T12:43:04.451Z,4.18
2024-05-09T12:45:31.517Z,4.70
2024-05-09T12:47:58.436Z,4.43
2024-05-09T12:50:31.814Z,4.53
2024-05-09T12:53:00.686Z,5.07
2024-05-09T12:55:28.502Z,4.45
2024-05-09T12:57:57.334Z,4.68
2024-05-09T13:00:31.236Z,4.20
2024-05-09T13:03:01.142Z,4.40
2024-05-09T13:05:28.659Z,4.90
2024-05-09T13:07:56.640Z,4.85
2024-05-09T13:10:30.782Z,4.80
2024-05-09T13:13:00.165Z,4.50
2024-05-09T13:15:27.335Z,4.85
2024-05-09T13:17:57.012Z,4.20
2024-05-09T13:23:01.998Z,4.53
2024-05-09T13:25:28.773Z,4.20
2024-05-09T13:27:56.461Z,4.22
2024-05-09T13:30:29.779Z,4.25
2024-05-09T13:33:06.307Z,3.92
2024-05-09T13:35:35.204Z,4.60
2024-05-09T13:38:02.762Z,5.10
2024-05-09T13:40:34.138Z,4.72
2024-05-09T13:43:03.494Z,4.28
2024-05-09T13:45:30.561Z,4.90
2024-05-09T13:47:57.542Z,4.38
2024-05-09T13:50:33.071Z,4.60
2024-05-09T13:53:03.026Z,4.45
2024-05-09T13:55:29.749Z,3.85
2024-05-09T13:57:56.737Z,3.30
2024-05-09T14:00:37.836Z,3.50
2024-05-09T14:03:10.573Z,3.38
2024-05-09T14:05:37.726Z,3.75
2024-05-09T14:08:04.859Z,3.85
2024-05-09T14:10:32.417Z,3.40
2024-05-09T14:13:01.170Z,2.80
2024-05-09T14:15:28.181Z,3.70
2024-05-09T14:17:55.587Z,4.15
2024-05-09T14:20:30.501Z,4.18
2024-05-09T14:23:00.077Z,3.60
2024-05-09T14:25:31.978Z,3.40
2024-05-09T14:27:59.455Z,3.45
2024-05-09T14:30:34.500Z,2.97
2024-05-09T14:33:05.441Z,3.10
2024-05-09T14:35:32.774Z,3.00
2024-05-09T14:37:59.515Z,2.97
2024-05-09T14:40:36.661Z,2.50
2024-05-09T14:43:08.919Z,2.40
2024-05-09T14:45:35.838Z,3.05
2024-05-09T14:48:03.616Z,3.30
2024-05-09T14:50:36.064Z,3.83
2024-05-09T14:53:06.962Z,3.58
2024-05-09T14:55:35.921Z,3.35
2024-05-09T14:58:03.639Z,3.50
2024-05-09T15:00:35.812Z,3.15
2024-05-09T15:03:04.756Z,3.38
2024-05-09T15:05:31.903Z,3.42
2024-05-09T15:07:59.395Z,3.70
2024-05-09T15:10:33.973Z,3.10
2024-05-09T15:13:03.381Z,3.20
2024-05-09T15:15:30.234Z,3.33
2024-05-09T15:17:57.160Z,3.03
2024-05-09T15:20:30.753Z,2.88
2024-05-09T15:23:01.872Z,3.00
2024-05-09T15:25:28.683Z,2.95
2024-05-09T15:27:55.587Z,3.40
2024-05-09T15:32:52.163Z,3.42
2024-05-09T15:35:18.947Z,3.60
2024-05-09T15:37:48.296Z,3.38
2024-05-09T15:40:22.078Z,4.00
2024-05-09T15:42:57.740Z,3.58
2024-05-09T15:45:24.449Z,3.10
2024-05-09T15:47:51.229Z,3.42
2024-05-09T15:50:27.679Z,3.30
2024-05-09T15:52:59.298Z,3.40
2024-05-09T15:55:26.194Z,2.80
2024-05-09T15:57:52.895Z,3.58
2024-05-09T16:00:28.431Z,2.80
2024-05-09T16:03:01.115Z,2.90
2024-05-09T16:05:27.928Z,3.08
2024-05-09T16:07:54.809Z,2.70
2024-05-09T16:10:25.960Z,2.63
2024-05-09T16:12:58.741Z,3.00
2024-05-09T16:15:25.530Z,2.78
2024-05-09T16:17:52.250Z,2.83
2024-05-09T16:20:29.863Z,3.05
2024-05-09T16:23:05.418Z,3.20
2024-05-09T16:25:32.065Z,2.42
2024-05-09T16:27:58.861Z,2.97
2024-05-09T16:30:32.112Z,2.67
2024-05-09T16:33:02.805Z,2.78
2024-05-09T16:35:29.742Z,3.05
2024-05-09T16:37:57.094Z,2.70
2024-05-09T16:40:30.474Z,2.70
2024-05-09T16:43:04.878Z,2.67
2024-05-09T16:45:31.843Z,3.00
2024-05-09T16:47:59.775Z,2.67
2024-05-09T16:50:32.312Z,2.58
2024-05-09T16:53:01.996Z,3.00
2024-05-09T16:55:29.143Z,3.00
2024-05-09T16:57:57.162Z,2.92
2024-05-09T17:00:35.196Z,3.30
2024-05-09T17:03:08.419Z,3.03
2024-05-09T17:05:36.272Z,2.80
2024-05-09T17:08:03.988Z,3.28
2024-05-09T17:10:33.761Z,2.78
2024-05-09T17:13:03.867Z,2.83
2024-05-09T17:15:32.502Z,2.38
2024-05-09T17:17:59.453Z,2.70
2024-05-09T17:20:32.565Z,2.70
2024-05-09T17:23:03.095Z,2.70
2024-05-09T17:25:29.904Z,2.58
2024-05-09T17:27:57.059Z,2.65
2024-05-09T17:30:32.092Z,3.00
2024-05-09T17:33:03.993Z,3.00
2024-05-09T17:35:32.006Z,2.92
2024-05-09T17:37:59.729Z,2.88
2024-05-09T17:40:32.703Z,2.95
2024-05-09T17:43:02.694Z,2.22
2024-05-09T17:45:29.667Z,2.53
2024-05-09T17:47:56.650Z,2.55
2024-05-09T17:50:30.373Z,2.55
2024-05-09T17:53:01.654Z,2.40
2024-05-09T17:55:28.848Z,2.55
2024-05-09T17:57:55.817Z,2.20
2024-05-09T18:00:32.943Z,2.53
2024-05-09T18:03:05.709Z,2.33
2024-05-09T18:05:32.830Z,2.67
2024-05-09T18:08:00.062Z,2.63
2024-05-09T18:10:33.741Z,2.70
2024-05-09T18:13:05.793Z,3.00
2024-05-09T18:15:33.208Z,2.80
2024-05-09T18:18:00.365Z,2.50
2024-05-09T18:20:37.086Z,3.03
2024-05-09T18:23:09.663Z,2.80
2024-05-09T18:25:36.500Z,3.05
2024-05-09T18:28:03.623Z,3.17
2024-05-09T18:30:34.949Z,2.92
2024-05-09T18:33:05.215Z,3.20
2024-05-09T18:35:33.296Z,2.67
2024-05-09T18:38:00.286Z,2.97
2024-05-09T18:40:33.640Z,2.67
2024-05-09T18:43:04.687Z,2.78
2024-05-09T18:45:32.442Z,2.78
2024-05-09T18:47:59.556Z,2.92
2024-05-09T18:50:34.856Z,3.22
2024-05-09T18:53:10.327Z,2.88
2024-05-09T18:55:38.055Z,2.97
2024-05-09T18:58:05.316Z,3.22
2024-05-09T19:00:36.285Z,3.20
2024-05-09T19:03:09.378Z,3.20
2024-05-09T19:05:38.879Z,3.90
2024-05-09T19:08:07.306Z,3.60
2024-05-09T19:10:36.162Z,3.60
2024-05-09T19:13:10.965Z,4.20
2024-05-09T19:15:40.468Z,4.93
2024-05-09T19:18:07.921Z,4.80
2024-05-09T19:20:36.491Z,4.13
2024-05-09T19:23:05.756Z,4.80
2024-05-09T19:25:33.157Z,4.65
2024-05-09T19:28:00.472Z,5.50
2024-05-09T19:30:36.646Z,5.60
2024-05-09T19:33:07.904Z,4.93
2024-05-09T19:35:34.802Z,5.03
2024-05-09T19:38:02.025Z,4.95
2024-05-09T19:40:32.047Z,5.07
2024-05-09T19:45:33.531Z,4.40
2024-05-09T19:48:01.378Z,4.05
2024-05-09T19:50:36.918Z,4.28
2024-05-09T19:53:09.214Z,4.00
2024-05-09T19:55:35.881Z,3.60
2024-05-09T19:58:05.053Z,3.92
2024-05-09T20:00:39.000Z,4.13
2024-05-09T20:03:08.367Z,4.07
2024-05-09T20:05:35.638Z,4.05
2024-05-09T20:08:02.750Z,4.32
2024-05-09T20:10:32.750Z,3.83
2024-05-09T20:13:02.268Z,4.07
2024-05-09T20:15:29.344Z,4.10
2024-05-09T20:17:56.391Z,4.13
2024-05-09T20:20:33.040Z,3.70
2024-05-09T20:23:05.810Z,4.00
2024-05-09T20:25:32.468Z,4.22
2024-05-09T20:27:59.174Z,4.80
2024-05-09T20:30:31.706Z,5.43
2024-05-09T20:33:02.522Z,4.90
2024-05-09T20:35:31.857Z,4.32
2024-05-09T20:38:00.786Z,4.13
2024-05-09T20:40:32.673Z,5.13
2024-05-09T20:43:03.105Z,4.40
2024-05-09T20:45:29.898Z,4.30
2024-05-09T20:47:57.322Z,4.53
2024-05-09T20:50:35.342Z,4.85
2024-05-09T20:53:07.265Z,5.10
2024-05-09T20:55:34.177Z,4.70
2024-05-09T20:58:00.835Z,3.83
2024-05-09T21:00:35.399Z,4.60
2024-05-09T21:03:07.415Z,4.25
2024-05-09T21:05:35.243Z,4.65
2024-05-09T21:08:02.614Z,4.50
2024-05-09T21:10:32.937Z,4.05
2024-05-09T21:13:02.399Z,3.85
2024-05-09T21:15:29.879Z,4.15
2024-05-09T21:17:56.571Z,4.50
2024-05-09T21:20:29.011Z,3.90
2024-05-09T21:22:58.632Z,4.25
2024-05-09T21:25:25.613Z,4.45
2024-05-09T21:27:52.668Z,4.03
2024-05-09T21:30:31.728Z,4.18
2024-05-09T21:33:08.260Z,4.40
2024-05-09T21:35:35.362Z,4.25
2024-05-09T21:38:02.038Z,4.45
2024-05-09T21:40:34.266Z,4.05
2024-05-09T21:43:03.396Z,4.40
2024-05-09T21:45:30.216Z,4.55
2024-05-09T21:47:56.970Z,3.80
2024-05-09T21:50:31.694Z,4.65
2024-05-09T21:53:05.559Z,4.82
2024-05-09T21:55:32.388Z,4.50
2024-05-09T21:57:59.019Z,4.88
2024-05-09T22:00:32.994Z,4.90
2024-05-09T22:03:04.146Z,4.90
2024-05-09T22:05:31.082Z,4.60
2024-05-09T22:07:57.989Z,4.13
2024-05-09T22:10:30.693Z,4.70
2024-05-09T22:13:01.286Z,4.50
2024-05-09T22:15:28.125Z,4.20
2024-05-09T22:17:57.186Z,4.15
2024-05-09T22:20:33.068Z,4.28
2024-05-09T22:23:04.359Z,4.72
2024-05-09T22:25:32.067Z,4.32
2024-05-09T22:28:00.423Z,4.72
2024-05-09T22:30:34.589Z,4.50
2024-05-09T22:33:05.950Z,4.63
2024-05-09T22:35:33.103Z,4.82
2024-05-09T22:37:59.851Z,4.70
2024-05-09T22:40:38.165Z,4.80
2024-05-09T22:43:13.281Z,5.15
2024-05-09T22:45:40.111Z,4.93
2024-05-09T22:48:08.391Z,4.70
2024-05-09T22:50:35.285Z,5.10
2024-05-09T22:53:02.078Z,4.55
2024-05-09T22:55:29.012Z,4.65
2024-05-09T22:57:56.218Z,4.60
2024-05-09T23:00:31.071Z,4.70
2024-05-09T23:03:03.031Z,4.88
2024-05-09T23:05:31.854Z,4.78
2024-05-09T23:07:58.675Z,4.97
2024-05-09T23:10:32.313Z,4.95
2024-05-09T23:13:03.358Z,4.88
2024-05-09T23:15:30.299Z,4.57
2024-05-09T23:17:57.300Z,4.72
2024-05-09T23:22:53.890Z,5.55
2024-05-09T23:25:20.591Z,5.20
2024-05-09T23:27:47.355Z,5.22
2024-05-09T23:30:25.393Z,5.05
2024-05-09T23:35:22.747Z,5.30
2024-05-09T23:37:49.382Z,5.57
2024-05-09T23:40:19.009Z,5.43
2024-05-09T23:42:49.383Z,5.57
2024-05-09T23:45:16.265Z,5.20
2024-05-09T23:47:43.206Z,5.40
2024-05-09T23:50:16.768Z,5.43
2024-05-09T23:52:50.110Z,5.35
2024-05-09T23:55:16.898Z,5.80
2024-05-09T23:57:43.692Z,5.55
